createdAt,value
2022-08-03T00:02:26.380Z,100501.65
2022-08-03T00:05:00.698Z,100498.45
2022-08-03T00:07:32.133Z,100496.20
2022-08-03T00:10:03.688Z,100494.01
2022-08-03T00:12:36.539Z,100486.30
2022-08-03T00:15:11.347Z,100482.36
2022-08-03T00:17:53.121Z,100489.00
2022-08-03T00:20:26.578Z,100488.64
2022-08-03T00:23:01.030Z,100486.73
2022-08-03T00:25:32.687Z,100488.69
2022-08-03T00:28:04.238Z,100484.70
2022-08-03T00:30:36.140Z,100482.20
2022-08-03T00:33:08.375Z,100481.88
2022-08-03T00:35:50.157Z,100482.22
2022-08-03T00:38:22.065Z,100479.67
2022-08-03T00:40:53.745Z,100474.25
2022-08-03T00:43:28.202Z,100471.16
2022-08-03T00:45:59.589Z,100476.58
2022-08-03T00:48:33.876Z,100477.64
2022-08-03T00:51:05.999Z,100467.20
2022-08-03T00:53:38.600Z,100462.26
2022-08-03T00:56:10.208Z,100465.64
2022-08-03T00:58:41.730Z,100464.73
2022-08-03T01:01:13.669Z,100456.11
2022-08-03T01:03:45.158Z,100460.20
2022-08-03T01:06:26.110Z,100461.74
2022-08-03T01:09:05.063Z,100454.59
2022-08-03T01:12:01.131Z,100453.63
2022-08-03T01:14:45.701Z,100450.35
2022-08-03T01:17:25.056Z,100451.86
2022-08-03T01:20:02.125Z,100453.02
2022-08-03T01:23:01.080Z,100448.95
2022-08-03T01:25:41.820Z,100452.30
2022-08-03T01:28:30.509Z,100449.21
2022-08-03T01:31:06.379Z,100445.66
2022-08-03T01:33:42.100Z,100443.37
2022-08-03T01:36:19.145Z,100444.25
2022-08-03T01:38:55.424Z,100443.08
2022-08-03T01:41:31.591Z,100443.63
2022-08-03T01:44:29.986Z,100443.19
2022-08-03T01:46:59.931Z,100441.50
2022-08-03T01:49:33.674Z,100437.55
2022-08-03T01:52:07.708Z,100446.92
2022-08-03T01:54:43.570Z,100451.18
2022-08-03T01:57:16.712Z,100451.06
2022-08-03T01:59:57.372Z,100453.98
2022-08-03T02:02:34.753Z,100451.48
2022-08-03T02:05:10.991Z,100448.86
2022-08-03T02:07:55.934Z,100446.83
2022-08-03T02:10:35.394Z,100445.37
2022-08-03T02:13:09.281Z,100451.66
2022-08-03T02:15:45.298Z,100448.61
2022-08-03T02:18:19.716Z,100450.91
2022-08-03T02:20:51.963Z,100451.74
2022-08-03T02:23:23.491Z,100457.08
2022-08-03T02:25:59.921Z,100459.66
2022-08-03T02:28:37.482Z,100461.70
2022-08-03T02:31:14.355Z,100459.45
2022-08-03T02:33:50.274Z,100460.71
2022-08-03T02:36:25.478Z,100461.86
2022-08-03T02:39:01.101Z,100463.35
2022-08-03T02:41:36.894Z,100468.69
2022-08-03T02:44:13.522Z,100468.31
2022-08-03T02:46:48.361Z,100471.60
2022-08-03T02:49:40.510Z,100476.14
2022-08-03T02:52:15.634Z,100478.39
2022-08-03T02:54:47.936Z,100478.27
2022-08-03T02:57:21.401Z,100473.64
2022-08-03T02:59:53.103Z,100470.21
2022-08-03T03:02:25.566Z,100470.80
2022-08-03T03:05:54.338Z,100466.51
2022-08-03T03:07:51.802Z,100465.98
2022-08-03T03:10:26.192Z,100465.09
2022-08-03T03:12:59.279Z,100464.10
2022-08-03T03:15:32.821Z,100467.67
2022-08-03T03:18:05.502Z,100464.27
2022-08-03T03:20:38.252Z,100472.29
2022-08-03T03:23:10.693Z,100467.96
2022-08-03T03:25:42.991Z,100468.23
2022-08-03T03:28:14.595Z,100467.23
2022-08-03T03:30:53.866Z,100467.52
2022-08-03T03:33:28.328Z,100466.27
2022-08-03T03:36:00.800Z,100476.37
2022-08-03T03:38:33.448Z,100474.70
2022-08-03T03:41:05.930Z,100475.08
2022-08-03T03:43:37.571Z,100482.89
2022-08-03T03:46:09.496Z,100481.70
2022-08-03T03:48:42.128Z,100481.66
2022-08-03T03:51:14.315Z,100487.98
2022-08-03T03:53:57.743Z,100493.27
2022-08-03T03:56:30.060Z,100491.48
2022-08-03T03:59:01.589Z,100490.54
2022-08-03T04:01:33.746Z,100495.39
2022-08-03T04:04:19.165Z,100500.59
2022-08-03T04:07:08.053Z,100502.09
2022-08-03T04:10:00.036Z,100502.64
2022-08-03T04:12:50.328Z,100503.04
2022-08-03T04:15:27.303Z,100502.70
2022-08-03T04:18:00.662Z,100506.89
2022-08-03T04:20:36.153Z,100514.09
2022-08-03T04:23:13.584Z,100508.59
2022-08-03T04:25:53.384Z,100514.64
2022-08-03T04:28:38.989Z,100516.91
2022-08-03T04:31:11.066Z,100520.81
2022-08-03T04:33:43.560Z,100528.34
2022-08-03T04:36:19.508Z,100536.61
2022-08-03T04:39:01.741Z,100533.45
2022-08-03T04:42:06.936Z,100536.61
2022-08-03T04:44:36.892Z,100539.88
2022-08-03T04:47:11.607Z,100538.86
2022-08-03T04:49:49.944Z,100540.85
2022-08-03T04:52:21.696Z,100541.09
2022-08-03T04:54:53.148Z,100549.23
2022-08-03T04:57:27.459Z,100555.56
2022-08-03T05:00:03.201Z,100553.95
2022-08-03T05:02:35.501Z,100561.52
2022-08-03T05:05:10.111Z,100559.21
2022-08-03T05:07:42.931Z,100554.32
2022-08-03T05:10:16.876Z,100556.63
2022-08-03T05:12:53.093Z,100559.59
2022-08-03T05:15:26.975Z,100554.21
2022-08-03T05:17:58.561Z,100555.26
2022-08-03T05:20:31.326Z,100554.91
2022-08-03T05:23:04.136Z,100557.14
2022-08-03T05:25:49.622Z,100558.84
2022-08-03T05:28:21.631Z,100566.34
2022-08-03T05:31:04.190Z,100565.52
2022-08-03T05:33:59.960Z,100568.16
2022-08-03T05:36:37.316Z,100570.11
2022-08-03T05:39:11.780Z,100573.29
2022-08-03T05:41:46.186Z,100572.29
2022-08-03T05:44:18.644Z,100579.23
2022-08-03T05:46:50.192Z,100582.73
2022-08-03T05:49:21.953Z,100583.66
2022-08-03T05:52:00.431Z,100583.79
2022-08-03T05:54:57.010Z,100591.45
2022-08-03T05:57:29.381Z,100599.77
2022-08-03T06:00:01.051Z,100605.80
2022-08-03T06:02:45.142Z,100610.73
2022-08-03T06:05:18.500Z,100611.20
2022-08-03T06:07:52.961Z,100605.50
2022-08-03T06:10:36.357Z,100603.13
2022-08-03T06:13:12.440Z,100607.45
2022-08-03T06:15:43.873Z,100610.59
2022-08-03T06:18:15.190Z,100615.53
2022-08-03T06:20:47.198Z,100615.41
2022-08-03T06:23:21.269Z,100616.02
2022-08-03T06:25:52.921Z,100610.23
2022-08-03T06:28:51.631Z,100613.80
2022-08-03T06:31:20.860Z,100612.26
2022-08-03T06:34:32.394Z,100610.52
2022-08-03T06:37:02.106Z,100615.60
2022-08-03T06:39:36.881Z,100619.41
2022-08-03T06:42:11.835Z,100620.80
2022-08-03T06:44:46.797Z,100626.48
2022-08-03T06:47:20.940Z,100628.55
2022-08-03T06:50:17.185Z,100627.19
2022-08-03T06:52:46.520Z,100631.14
2022-08-03T06:55:21.117Z,100629.64
2022-08-03T06:57:52.582Z,100625.98
2022-08-03T07:00:33.151Z,100626.06
2022-08-03T07:03:07.505Z,100620.08
2022-08-03T07:05:41.626Z,100621.08
2022-08-03T07:08:14.903Z,100626.02
2022-08-03T07:10:48.911Z,100623.33
2022-08-03T07:13:22.931Z,100623.97
2022-08-03T07:15:56.080Z,100629.22
2022-08-03T07:18:29.808Z,100628.03
2022-08-03T07:21:01.662Z,100607.26
2022-08-03T07:23:36.395Z,100610.19
2022-08-03T07:26:08.260Z,100619.84
2022-08-03T07:28:39.587Z,100622.27
2022-08-03T07:31:10.947Z,100628.17
2022-08-03T07:33:42.321Z,100627.17
2022-08-03T07:36:13.722Z,100622.52
2022-08-03T07:38:45.183Z,100619.39
2022-08-03T07:41:16.634Z,100627.34
2022-08-03T07:43:48.007Z,100625.69
2022-08-03T07:46:20.489Z,100627.38
2022-08-03T07:48:52.303Z,100622.73
2022-08-03T07:51:23.699Z,100626.63
2022-08-03T07:53:57.812Z,100628.38
2022-08-03T07:56:29.735Z,100631.90
2022-08-03T07:59:02.632Z,100634.45
2022-08-03T08:01:36.914Z,100631.42
2022-08-03T08:04:08.431Z,100629.02
2022-08-03T08:06:39.767Z,100642.08
2022-08-03T08:09:11.837Z,100643.06
2022-08-03T08:11:43.177Z,100636.33
2022-08-03T08:14:14.542Z,100635.69
2022-08-03T08:16:46.495Z,100639.58
2022-08-03T08:19:17.889Z,100642.45
2022-08-03T08:21:53.791Z,100632.39
2022-08-03T08:24:34.209Z,100631.80
2022-08-03T08:27:05.936Z,100629.52
2022-08-03T08:29:37.300Z,100626.99
2022-08-03T08:32:19.209Z,100630.15
2022-08-03T08:34:51.148Z,100638.01
2022-08-03T08:37:22.439Z,100630.89
2022-08-03T08:39:54.015Z,100634.63
2022-08-03T08:42:25.420Z,100636.85
2022-08-03T08:44:57.871Z,100641.44
2022-08-03T08:47:50.886Z,100635.81
2022-08-03T08:50:27.851Z,100633.34
2022-08-03T08:53:04.507Z,100639.27
2022-08-03T08:55:59.324Z,100633.77
2022-08-03T08:58:30.123Z,100634.90
2022-08-03T09:01:01.732Z,100633.03
2022-08-03T09:03:34.376Z,100639.14
2022-08-03T09:06:07.055Z,100647.17
2022-08-03T09:08:38.447Z,100652.26
2022-08-03T09:11:12.035Z,100651.30
2022-08-03T09:13:44.096Z,100654.31
2022-08-03T09:16:17.864Z,100659.98
2022-08-03T09:18:51.094Z,100661.06
2022-08-03T09:21:32.118Z,100665.56
2022-08-03T09:24:10.492Z,100675.94
2022-08-03T09:26:54.802Z,100668.52
2022-08-03T09:29:26.470Z,100675.35
2022-08-03T09:32:06.108Z,100678.09
2022-08-03T09:34:37.887Z,100671.51
2022-08-03T09:37:17.219Z,100676.30
2022-08-03T09:39:48.822Z,100673.15
2022-08-03T09:42:23.613Z,100663.06
2022-08-03T09:44:56.058Z,100665.74
2022-08-03T09:47:34.325Z,100667.08
2022-08-03T09:50:08.373Z,100664.55
2022-08-03T09:52:49.357Z,100663.58
2022-08-03T09:56:33.598Z,100677.95
2022-08-03T09:58:16.597Z,100677.20
2022-08-03T10:00:58.844Z,100668.85
2022-08-03T10:03:32.294Z,100665.78
2022-08-03T10:06:19.575Z,100674.10
2022-08-03T10:09:08.769Z,100679.22
2022-08-03T10:11:42.422Z,100669.56
2022-08-03T10:14:19.500Z,100673.27
2022-08-03T10:17:03.315Z,100675.88
2022-08-03T10:19:35.123Z,100665.64
2022-08-03T10:22:13.693Z,100665.64
2022-08-03T10:25:06.934Z,100661.80
2022-08-03T10:27:48.809Z,100660.91
2022-08-03T10:30:26.187Z,100666.49
2022-08-03T10:33:03.644Z,100672.87
2022-08-03T10:35:54.112Z,100666.70
2022-08-03T10:38:34.194Z,100669.70
2022-08-03T10:41:19.319Z,100663.85
2022-08-03T10:43:56.214Z,100670.83
2022-08-03T10:46:30.428Z,100679.36
2022-08-03T10:49:04.594Z,100675.58
2022-08-03T10:51:36.524Z,100674.02
2022-08-03T10:54:10.527Z,100678.02
2022-08-03T10:57:14.668Z,100683.87
2022-08-03T11:00:05.240Z,100672.33
2022-08-03T11:03:10.496Z,100674.98
2022-08-03T11:05:44.530Z,100679.38
2022-08-03T11:08:26.893Z,100666.68
2022-08-03T11:11:03.656Z,100660.94
2022-08-03T11:13:35.164Z,100659.59
2022-08-03T11:16:23.587Z,100650.36
2022-08-03T11:19:02.810Z,100655.97
2022-08-03T11:21:56.886Z,100658.21
2022-08-03T11:25:04.702Z,100656.00
2022-08-03T11:27:37.790Z,100649.61
2022-08-03T11:30:14.081Z,100655.50
2022-08-03T11:33:02.684Z,100654.14
2022-08-03T11:35:36.170Z,100662.08
2022-08-03T11:38:12.612Z,100664.42
2022-08-03T11:40:49.934Z,100665.48
2022-08-03T11:43:47.669Z,100659.75
2022-08-03T11:46:28.348Z,100655.16
2022-08-03T11:49:10.838Z,100652.66
2022-08-03T11:51:42.426Z,100655.05
2022-08-03T11:54:14.038Z,100662.41
2022-08-03T11:56:50.016Z,100659.65
2022-08-03T11:59:32.897Z,100655.92
2022-08-03T12:02:12.029Z,100661.92
2022-08-03T12:04:58.389Z,100653.24
2022-08-03T12:08:03.688Z,100663.51
2022-08-03T12:10:23.936Z,100665.83
2022-08-03T12:13:00.060Z,100676.09
2022-08-03T12:15:41.023Z,100674.15
2022-08-03T12:18:20.873Z,100685.91
2022-08-03T12:20:53.659Z,100684.98
2022-08-03T12:23:25.074Z,100691.86
2022-08-03T12:26:02.691Z,100693.36
2022-08-03T12:28:37.267Z,100697.38
2022-08-03T12:31:10.635Z,100693.45
2022-08-03T12:34:03.533Z,100704.73
2022-08-03T12:36:37.703Z,100701.70
2022-08-03T12:39:12.035Z,100702.03
2022-08-03T12:41:43.696Z,100707.04
2022-08-03T12:44:15.124Z,100702.52
2022-08-03T12:46:48.058Z,100700.84
2022-08-03T12:49:20.088Z,100711.52
2022-08-03T12:52:07.042Z,100710.32
2022-08-03T12:54:39.051Z,100708.92
2022-08-03T12:57:16.325Z,100708.23
2022-08-03T12:59:52.577Z,100716.38
2022-08-03T13:02:27.503Z,100715.29
2022-08-03T13:05:00.353Z,100724.30
2022-08-03T13:07:41.300Z,100720.31
2022-08-03T13:10:31.721Z,100723.30
2022-08-03T13:13:04.880Z,100739.83
2022-08-03T13:15:39.627Z,100749.00
2022-08-03T13:18:19.604Z,100751.40
2022-08-03T13:20:50.900Z,100759.17
2022-08-03T13:23:22.851Z,100755.66
2022-08-03T13:25:55.316Z,100756.16
2022-08-03T13:28:27.577Z,100747.00
2022-08-03T13:30:59.325Z,100749.20
2022-08-03T13:33:31.281Z,100756.51
2022-08-03T13:36:02.696Z,100748.95
2022-08-03T13:38:33.999Z,100753.98
2022-08-03T13:41:05.932Z,100750.06
2022-08-03T13:43:37.190Z,100755.27
2022-08-03T13:46:08.536Z,100754.73
2022-08-03T13:48:39.865Z,100756.19
2022-08-03T13:51:21.975Z,100749.27
2022-08-03T13:53:54.904Z,100747.64
2022-08-03T13:56:26.338Z,100736.33
2022-08-03T13:58:58.376Z,100743.02
2022-08-03T14:01:53.558Z,100737.08
2022-08-03T14:04:26.015Z,100730.14
2022-08-03T14:07:21.103Z,100731.35
2022-08-03T14:10:01.925Z,100733.60
2022-08-03T14:12:38.169Z,100739.71
2022-08-03T14:15:19.480Z,100741.73
2022-08-03T14:20:58.720Z,100728.80
2022-08-03T14:23:32.763Z,100728.23
2022-08-03T14:26:04.922Z,100728.42
2022-08-03T14:28:37.026Z,100731.14
2022-08-03T14:32:10.418Z,100732.84
2022-08-03T14:34:12.791Z,100732.67
2022-08-03T14:36:53.819Z,100730.90
2022-08-03T14:41:24.926Z,100735.02
2022-08-03T14:43:27.069Z,100731.45
2022-08-03T14:46:07.127Z,100733.77
2022-08-03T14:50:33.887Z,100739.90
2022-08-03T14:51:54.256Z,100742.05
2022-08-03T14:54:42.325Z,100742.19
2022-08-03T14:57:13.993Z,100740.30
2022-08-03T14:59:55.966Z,100741.30
2022-08-03T15:02:37.092Z,100746.16
2022-08-03T15:05:10.983Z,100744.45
2022-08-03T15:07:42.580Z,100744.58
2022-08-03T15:10:20.145Z,100744.98
2022-08-03T15:12:58.914Z,100737.77
2022-08-03T15:15:30.637Z,100736.00
2022-08-03T15:18:02.146Z,100735.60
2022-08-03T15:20:43.918Z,100737.71
2022-08-03T15:23:20.201Z,100743.23
2022-08-03T15:26:29.396Z,100746.08
2022-08-03T15:28:45.784Z,100751.78
2022-08-03T15:31:26.190Z,100748.77
2022-08-03T15:33:57.530Z,100747.32
2022-08-03T15:36:30.119Z,100759.27
2022-08-03T15:39:04.594Z,100765.84
2022-08-03T15:41:36.040Z,100761.14
2022-08-03T15:44:09.424Z,100752.85
2022-08-03T15:46:41.284Z,100756.50
2022-08-03T15:49:12.716Z,100762.58
2022-08-03T15:51:44.042Z,100759.92
2022-08-03T15:54:15.638Z,100768.10
2022-08-03T15:59:53.846Z,100768.88
2022-08-03T16:02:35.272Z,100775.35
2022-08-03T16:05:07.418Z,100774.61
2022-08-03T16:08:03.650Z,100775.29
2022-08-03T16:10:39.900Z,100770.61
2022-08-03T16:13:11.899Z,100770.84
2022-08-03T16:15:45.791Z,100771.40
2022-08-03T16:18:19.873Z,100772.52
2022-08-03T16:21:05.117Z,100771.22
2022-08-03T16:23:39.928Z,100771.96
2022-08-03T16:26:37.918Z,100766.65
2022-08-03T16:29:23.027Z,100774.23
2022-08-03T16:31:57.816Z,100772.62
2022-08-03T16:34:38.280Z,100773.73
2022-08-03T16:37:36.628Z,100777.40
2022-08-03T16:40:22.038Z,100772.55
2022-08-03T16:42:53.456Z,100777.84
2022-08-03T16:45:25.181Z,100779.64
2022-08-03T16:48:01.855Z,100778.77
2022-08-03T16:50:38.357Z,100778.58
2022-08-03T16:53:15.553Z,100782.39
2022-08-03T16:55:53.677Z,100783.77
2022-08-03T16:58:41.511Z,100778.56
2022-08-03T17:01:24.307Z,100774.76
2022-08-03T17:04:03.276Z,100774.07
2022-08-03T17:06:44.626Z,100773.38
2022-08-03T17:09:19.165Z,100776.27
2022-08-03T17:11:52.782Z,100781.90
2022-08-03T17:14:29.433Z,100783.11
2022-08-03T17:17:05.712Z,100791.83
2022-08-03T17:19:47.121Z,100788.05
2022-08-03T17:22:25.083Z,100789.36
2022-08-03T17:24:58.690Z,100790.02
2022-08-03T17:28:48.701Z,100786.56
2022-08-03T17:30:44.560Z,100786.92
2022-08-03T17:33:20.481Z,100785.66
2022-08-03T17:35:56.556Z,100784.52
2022-08-03T17:38:36.284Z,100786.92
2022-08-03T17:41:10.818Z,100791.56
2022-08-03T17:44:15.808Z,100790.09
2022-08-03T17:46:35.772Z,100792.27
2022-08-03T17:49:24.938Z,100791.63
2022-08-03T17:52:02.963Z,100797.23
2022-08-03T17:55:55.631Z,100809.73
2022-08-03T17:58:02.985Z,100816.27
2022-08-03T18:00:59.694Z,100818.55
2022-08-03T18:03:57.692Z,100818.61
2022-08-03T18:06:37.386Z,100811.73
2022-08-03T18:10:03.252Z,100811.33
2022-08-03T18:12:37.359Z,100807.30
2022-08-03T18:18:10.718Z,100809.43
2022-08-03T18:20:45.665Z,100813.52
2022-08-03T18:23:24.970Z,100812.52
2022-08-03T18:26:10.706Z,100809.67
2022-08-03T18:28:44.826Z,100819.50
2022-08-03T18:32:00.527Z,100818.59
2022-08-03T18:34:16.413Z,100823.66
2022-08-03T18:36:51.938Z,100827.63
2022-08-03T18:39:26.712Z,100834.84
2022-08-03T18:41:59.529Z,100841.79
2022-08-03T18:44:52.553Z,100846.45
2022-08-03T18:47:52.113Z,100852.95
2022-08-03T18:50:30.559Z,100856.44
2022-08-03T18:53:16.205Z,100859.83
2022-08-03T18:58:55.484Z,100866.46
2022-08-03T19:01:58.961Z,100872.45
2022-08-03T19:04:35.309Z,100878.28
2022-08-03T19:07:11.181Z,100881.42
2022-08-03T19:09:51.933Z,100889.16
2022-08-03T19:12:35.493Z,100889.41
2022-08-03T19:15:12.693Z,100900.73
2022-08-03T19:17:53.352Z,100912.46
2022-08-03T19:20:33.890Z,100920.61
2022-08-03T19:25:57.896Z,100923.76
2022-08-03T19:28:34.222Z,100929.30
2022-08-03T19:31:10.268Z,100924.04
2022-08-03T19:33:57.396Z,100932.69
2022-08-03T19:36:39.552Z,100938.31
2022-08-03T19:39:15.730Z,100938.79
2022-08-03T19:41:53.413Z,100942.27
2022-08-03T19:44:35.559Z,100943.31
2022-08-03T19:47:24.063Z,100944.26
2022-08-03T19:50:05.770Z,100948.36
2022-08-03T19:52:44.057Z,100947.02
2022-08-03T19:55:17.525Z,100951.80
2022-08-03T19:57:55.077Z,100953.80
2022-08-03T20:00:34.066Z,100961.53
2022-08-03T20:03:37.857Z,100968.23
2022-08-03T20:06:33.215Z,100975.89
2022-08-03T20:09:16.736Z,100978.15
2022-08-03T20:11:52.728Z,100977.26
2022-08-03T20:14:29.993Z,100985.00
2022-08-03T20:17:05.337Z,100984.61
2022-08-03T20:19:44.255Z,100995.63
2022-08-03T20:22:23.168Z,101005.64
2022-08-03T20:25:16.260Z,101008.80
2022-08-03T20:28:13.980Z,101011.27
2022-08-03T20:30:51.097Z,101011.38
2022-08-03T20:33:46.395Z,101010.90
2022-08-03T20:36:23.840Z,101013.58
2022-08-03T20:39:02.288Z,101013.70
2022-08-03T20:41:43.905Z,101013.52
2022-08-03T20:44:15.884Z,101010.93
2022-08-03T20:47:00.703Z,101009.23
2022-08-03T20:49:46.318Z,101009.31
2022-08-03T20:52:19.311Z,101001.35
2022-08-03T20:54:52.110Z,101007.52
2022-08-03T20:57:24.232Z,101005.11
2022-08-03T20:59:57.472Z,101006.02
2022-08-03T21:02:30.862Z,101008.41
2022-08-03T21:05:08.547Z,101013.34
2022-08-03T21:08:04.964Z,101015.64
2022-08-03T21:10:40.706Z,101014.38
2022-08-03T21:12:57.372Z,100805.77
2022-08-03T21:13:00.962Z,100864.71
2022-08-03T21:13:02.097Z,100922.52
2022-08-03T21:13:24.313Z,101012.81
2022-08-03T21:16:06.140Z,101010.67
2022-08-03T21:18:50.574Z,101014.52
2022-08-03T21:21:24.541Z,101015.92
2022-08-03T21:23:59.698Z,101021.69
2022-08-03T21:26:33.834Z,101031.01
2022-08-03T21:29:05.349Z,101035.70
2022-08-03T21:31:42.447Z,101036.80
2022-08-03T21:34:16.663Z,101043.59
2022-08-03T21:36:48.076Z,101052.08
2022-08-03T21:39:19.562Z,101056.53
2022-08-03T21:41:50.972Z,101056.27
2022-08-03T21:44:29.073Z,101059.59
2022-08-03T21:47:03.452Z,101060.97
2022-08-03T21:50:04.559Z,101060.13
2022-08-03T21:52:30.013Z,101064.08
2022-08-03T21:55:06.807Z,101066.90
2022-08-03T21:57:39.926Z,101069.90
2022-08-03T22:00:15.832Z,101067.17
2022-08-03T22:02:54.441Z,101068.30
2022-08-03T22:05:42.494Z,101069.88
2022-08-03T22:08:16.193Z,101075.89
2022-08-03T22:11:12.271Z,101077.16
2022-08-03T22:13:44.703Z,101074.00
2022-08-03T22:16:25.518Z,101083.20
2022-08-03T22:18:57.095Z,101083.61
2022-08-03T22:21:36.062Z,101086.45
2022-08-03T22:24:32.188Z,101091.99
2022-08-03T22:27:23.496Z,101093.48
2022-08-03T22:29:56.220Z,101096.31
2022-08-03T22:32:28.972Z,101101.65
2022-08-03T22:35:07.482Z,101106.89
2022-08-03T22:37:57.199Z,101103.21
2022-08-03T22:40:40.389Z,101105.36
2022-08-03T22:43:15.179Z,101107.55
2022-08-03T22:46:09.291Z,101104.30
2022-08-03T22:48:41.916Z,101111.02
2022-08-03T22:51:28.325Z,101113.07
2022-08-03T22:54:05.528Z,101114.82
2022-08-03T22:56:41.500Z,101118.80
2022-08-03T22:59:39.939Z,101124.88
2022-08-03T23:02:20.141Z,101124.59
2022-08-03T23:04:56.636Z,101126.52
2022-08-03T23:07:32.855Z,101127.55
2022-08-03T23:10:09.052Z,101133.56
2022-08-03T23:12:45.540Z,101138.98
2022-08-03T23:15:18.669Z,101141.88
2022-08-03T23:18:04.549Z,101143.22
2022-08-03T23:20:41.694Z,101149.89
2022-08-03T23:23:20.643Z,101157.76
2022-08-03T23:26:03.530Z,101157.75
2022-08-03T23:28:51.809Z,101158.61
2022-08-03T23:31:31.547Z,101161.84
2022-08-03T23:34:23.383Z,101160.69
2022-08-03T23:37:04.712Z,101163.20
2022-08-03T23:39:38.174Z,101163.48
2022-08-03T23:42:33.257Z,101163.41
2022-08-03T23:45:29.108Z,101170.17
2022-08-03T23:48:19.152Z,101171.12
2022-08-03T23:50:58.356Z,101172.95
2022-08-03T23:53:41.598Z,101172.71
2022-08-03T23:56:20.150Z,101170.81
2022-08-03T23:59:07.123Z,101172.79
